Flight Track Log - Related Links

Times and Time Zones

All times are in EDT time to prevent confusion due to time zone crossing. See the FFT303 flight status page for this flight to view local times or setup timezone preferences in your user account.

Time Position Orientation Groundspeed Altitude Reporting Facility
EDT Latitude Longitude Course Direction KTS MPH feet Rate Location/Type
Mon 07:51:42 PM 41.8167 -87.7667 265° West 186 214 2,500  Level Chicago TRACON
Mon 07:52:43 PM 41.8000 -87.8333 251° West 246 283 4,900 2,876 Climbing Chicago TRACON
Mon 07:53:43 PM 41.7833 -87.9333 257° West 252 290 8,300 3,255 Climbing Chicago TRACON
Mon 07:54:17 PM 41.7869 -87.9883 275° West 258 297 10,000 2,750 Climbing Chicago Center
Mon 07:55:19 PM 41.7758 -88.0878 262° West 272 313 12,700 1,984 Climbing Chicago Center
Mon 07:56:21 PM 41.7619 -88.1942 260° West 286 329 14,100 1,839 Climbing Chicago Center
Mon 07:57:00 PM 41.7326 -88.5953 265° West  Level FlightAware Approximate
Mon 07:57:23 PM 41.7489 -88.3147 262° West 321 369 16,500  Level Chicago Center
Mon 07:58:25 PM 41.7358 -88.4369 262° West 334 384 18,800 2,419 Climbing Chicago Center
Mon 07:59:27 PM 41.7403 -88.5872 272° West 339 390 21,500 2,371 Climbing Chicago Center
Mon 08:00:29 PM 41.7442 -88.7175 272° West 351 404 23,700 2,032 Climbing Chicago Center
Mon 08:01:31 PM 41.7467 -88.8500 271° West 358 412 25,700 1,597 Climbing Chicago Center
Mon 08:02:33 PM 41.7467 -88.9911 270° West 377 434 27,000 1,548 Climbing Chicago Center
Mon 08:03:35 PM 41.7414 -89.1383 267° West 394 453 28,900 1,742 Climbing Chicago Center
Mon 08:04:37 PM 41.7367 -89.3175 268° West 403 464 30,600 1,355 Climbing Chicago Center
Mon 08:05:39 PM 41.7306 -89.4717 267° West 415 478 31,700 1,306 Climbing Chicago Center
Mon 08:06:41 PM 41.7256 -89.6403 268° West 426 490 33,300 1,645 Climbing Chicago Center
Mon 08:07:43 PM 41.7197 -89.7958 267° West 422 486 35,100 1,452 Climbing Chicago Center
Mon 08:08:45 PM 41.7133 -89.9511 267° West 419 482 36,300 1,065 Climbing Chicago Center
Mon 08:09:47 PM 41.7072 -90.1064 267° West 419 482 37,300 823 Climbing Chicago Center
Mon 08:10:49 PM 41.7000 -90.2606 266° West 417 480 38,000 339 Climbing Chicago Center
Mon 08:11:51 PM 41.6922 -90.4181 266° West 423 487 38,000  Level Chicago Center
Mon 08:12:53 PM 41.6844 -90.6008 267° West 413 475 38,000  Level Chicago Center
Mon 08:13:55 PM 41.6769 -90.7469 266° West 415 478 38,000  Level Chicago Center
Mon 08:14:57 PM 41.6706 -90.8992 267° West 413 475 38,000  Level Chicago Center
Mon 08:15:59 PM 41.6625 -91.0528 266° West 416 479 38,000  Level Chicago Center
Mon 08:17:01 PM 41.6522 -91.2375 266° West 417 480 38,000  Level Chicago Center
Mon 08:18:03 PM 41.6447 -91.3906 266° West 416 479 38,000  Level Chicago Center
Mon 08:19:05 PM 41.6369 -91.5450 266° West 418 481 38,000  Level Chicago Center
Mon 08:20:07 PM 41.6286 -91.6994 266° West 418 481 38,000  Level Chicago Center
Mon 08:21:09 PM 41.6194 -91.8542 266° West 419 482 38,000  Level Chicago Center
Mon 08:22:11 PM 41.6083 -92.0392 265° West 419 482 38,000  Level Chicago Center
Mon 08:23:13 PM 41.5994 -92.1917 266° West 416 479 38,000  Level Chicago Center
Mon 08:24:15 PM 41.5900 -92.3464 265° West 419 482 38,000  Level Chicago Center
Mon 08:25:18 PM 41.5808 -92.5000 265° West 419 482 38,000  Level Chicago Center
Mon 08:26:20 PM 41.5708 -92.6539 265° West 420 483 38,000  Level Chicago Center
Mon 08:26:54 PM 41.5653 -92.7389 265° West 415 478 38,000  Level Minneapolis Center
Mon 08:27:56 PM 41.5533 -92.9239 265° West 419 482 38,000  Level Minneapolis Center
Mon 08:28:57 PM 41.5425 -93.0767 265° West 420 483 38,000  Level Minneapolis Center
Mon 08:29:59 PM 41.5325 -93.2317 265° West 421 484 38,000  Level Minneapolis Center
Mon 08:31:13 PM 41.5197 -93.4156 265° West 420 483 38,000  Level Minneapolis Center
Mon 08:32:15 PM 41.5092 -93.5656 265° West 416 479 38,000  Level Minneapolis Center
Mon 08:33:17 PM 41.4961 -93.7494 265° West 417 480 38,000  Level Minneapolis Center
Mon 08:34:19 PM 41.4853 -93.9033 265° West 421 484 38,000  Level Minneapolis Center
Mon 08:35:21 PM 41.4731 -94.0567 264° West 421 484 38,000  Level Minneapolis Center
Mon 08:36:23 PM 41.4594 -94.2256 264° West 423 487 38,000  Level Minneapolis Center
Mon 08:37:25 PM 41.4456 -94.3825 263° West 427 491 38,000  Level Minneapolis Center
Mon 08:38:27 PM 41.4328 -94.5383 264° West 425 489 38,000  Level Minneapolis Center
Mon 08:39:29 PM 41.4208 -94.6956 264° West 427 491 38,000  Level Minneapolis Center
Mon 08:40:31 PM 41.4078 -94.8517 264° West 425 489 38,000  Level Minneapolis Center
Mon 08:41:32 PM 41.3933 -95.0381 264° West 421 484 38,000  Level Minneapolis Center
Mon 08:42:34 PM 41.3803 -95.1936 264° West 421 484 38,000  Level Minneapolis Center
Mon 08:43:48 PM 41.3658 -95.3500 263° West 425 489 38,000  Level Minneapolis Center
Mon 08:44:51 PM 41.3486 -95.5386 263° West 427 491 38,000  Level Minneapolis Center
Mon 08:45:53 PM 41.3328 -95.6978 263° West 425 489 38,000  Level Minneapolis Center
Mon 08:46:55 PM 41.3186 -95.8547 263° West 427 491 38,000  Level Minneapolis Center
Mon 08:47:57 PM 41.3050 -96.0111 263° West 426 490 38,000  Level Minneapolis Center
Mon 08:48:59 PM 41.2878 -96.1983 263° West 426 490 38,000  Level Minneapolis Center
Mon 08:50:01 PM 41.2742 -96.3550 263° West 426 490 38,000  Level Minneapolis Center
Mon 08:51:03 PM 41.2567 -96.5225 262° West 427 491 38,000  Level Minneapolis Center
Mon 08:52:05 PM 41.2408 -96.6783 262° West 426 490 38,000  Level Minneapolis Center
Mon 08:53:07 PM 41.2253 -96.8344 263° West 427 491 38,000  Level Minneapolis Center
Mon 08:54:09 PM 41.2097 -96.9897 262° West 425 489 38,000  Level Minneapolis Center
Mon 08:55:11 PM 41.1931 -97.1439 262° West 424 488 38,000  Level Minneapolis Center
Mon 08:56:13 PM 41.1764 -97.2994 262° West 425 489 38,000  Level Minneapolis Center
Mon 08:57:15 PM 41.1575 -97.4756 262° West 426 490 38,000  Level Minneapolis Center
Mon 08:58:17 PM 41.1411 -97.6306 262° West 425 489 38,000  Level Minneapolis Center
Mon 08:59:19 PM 41.1236 -97.7864 262° West 426 490 38,000  Level Minneapolis Center
Mon 09:00:21 PM 41.1072 -97.9425 262° West 427 491 38,000  Level Minneapolis Center
Mon 09:01:23 PM 41.0894 -98.0983 261° West 427 491 38,000  Level Minneapolis Center
Mon 09:02:25 PM 41.0686 -98.2847 262° West 426 490 38,000  Level Minneapolis Center
Mon 09:03:27 PM 41.0506 -98.4411 261° West 427 491 38,000  Level Minneapolis Center
Mon 09:04:29 PM 41.0325 -98.6056 262° West 428 493 38,000  Level Minneapolis Center
Mon 09:05:31 PM 41.0133 -98.7639 261° West 434 499 38,000  Level Minneapolis Center
Mon 09:06:45 PM 40.9908 -98.9556 261° West 438 504 38,000  Level Minneapolis Center
Mon 09:07:47 PM 40.9758 -99.1131 263° West 434 499 38,000  Level Minneapolis Center
Mon 09:08:49 PM 40.9578 -99.2725 262° West 428 493 38,000  Level Minneapolis Center
Mon 09:09:51 PM 40.9389 -99.4311 261° West 432 497 38,000  Level Minneapolis Center
Mon 09:11:00 PM 40.9150 -99.6272 261° West 448 516 38,000  Level Denver Center
Mon 09:12:02 PM 40.8961 -99.7928 261° West 454 522 38,000  Level Denver Center
Mon 09:13:03 PM 40.8764 -99.9486 261° West 451 519 38,000  Level Denver Center
Mon 09:14:06 PM 40.8539 -100.1297 261° West 448 516 38,000  Level Denver Center
Mon 09:15:19 PM 40.8303 -100.3114 260° West 450 518 38,000 44 Level Denver Center
Mon 09:16:21 PM 40.8081 -100.4953 261° West 452 520 38,100  Climbing Denver Center
Mon 09:17:23 PM 40.7831 -100.6728 260° West 454 522 38,000 -48 Descending Denver Center
Mon 09:18:25 PM 40.7553 -100.8433 258° West 457 526 38,000  Level Denver Center
Mon 09:19:27 PM 40.7300 -101.0008 258° West 454 522 38,000  Level Denver Center
Mon 09:20:28 PM 40.6989 -101.1825 257° West 455 524 38,000  Level Denver Center
Mon 09:21:30 PM 40.6719 -101.3367 257° West 452 520 38,000 -145 Level Denver Center
Mon 09:22:32 PM 40.6403 -101.5181 257° West 454 522 37,700 -387 Descending Denver Center
Mon 09:23:34 PM 40.6128 -101.6722 257° West 452 520 37,200 -439 Descending Denver Center
Mon 09:24:35 PM 40.5856 -101.8272 257° West 455 524 36,800 -488 Descending Denver Center
Mon 09:25:37 PM 40.5522 -102.0092 256° West 458 527 36,200 -484 Descending Denver Center
Mon 09:26:39 PM 40.5222 -102.1647 256° West 458 527 35,800 -726 Descending Denver Center
Mon 09:27:41 PM 40.4894 -102.3472 257° West 460 529 34,700 -1,016 Descending Denver Center
Mon 09:28:43 PM 40.4592 -102.5039 256° West 462 532 33,700 -976 Descending Denver Center
Mon 09:29:44 PM 40.4247 -102.6906 256° West 470 541 32,700 -1,171 Descending Denver Center
Mon 09:30:46 PM 40.3944 -102.8475 256° West 465 535 31,300 -2,177 Descending Denver Center
Mon 09:31:48 PM 40.3611 -103.0294 257° West 460 529 28,200 -2,710 Descending Denver Center
Mon 09:32:50 PM 40.3317 -103.1775 255° West 442 509 25,700 -2,390 Descending Denver Center
Mon 09:33:51 PM 40.3044 -103.3228 256° West 430 495 23,300 -2,537 Descending Denver Center
Mon 09:34:53 PM 40.2708 -103.4908 255° West 412 474 20,500 -1,839 Descending Denver Center
Mon 09:35:55 PM 40.2447 -103.6208 255° West 386 444 19,500 -1,258 Descending Denver Center
Mon 09:36:57 PM 40.2200 -103.7481 256° West 355 409 17,900 -1,171 Descending Denver Center
Mon 09:37:58 PM 40.2008 -103.8722 259° West 315 362 17,100 -1,220 Descending Denver Center
Mon 09:39:00 PM 40.2122 -103.9828 278° West 309 356 15,400 -1,161 Descending Denver Center
Mon 09:40:02 PM 40.2058 -104.0775 265° West 310 357 14,700 -823 Descending Denver Center
Mon 09:41:04 PM 40.1958 -104.2139 265° West 307 353 13,700 -871 Descending Denver Center
Mon 09:42:06 PM 40.1881 -104.3231 265° West 304 350 12,900 -919 Descending Denver Center
Mon 09:43:08 PM 40.1806 -104.4389 265° West 299 344 11,800 -1,306 Descending Denver Center
Mon 09:44:10 PM 40.1619 -104.5417 257° West 297 342 10,200 -1,645 Descending Denver Center
Mon 09:45:12 PM 40.1242 -104.6408 244° Southwest 288 331 8,400 -1,016 Descending Denver Center
Mon 09:46:14 PM 40.0606 -104.6869 209° Southwest 261 300 8,100 -532 Descending Denver Center
Mon 09:47:16 PM 40.0011 -104.6953 186° South 218 251 7,300 -927 Descending Denver Center
Mon 09:48:17 PM 39.9419 -104.6956 180° South 201 231 6,200 -829 Descending Denver Center
Mon 09:49:19 PM 39.9047 -104.6961 181° South 140 161 5,600 -435 Descending Denver Center
Mon 09:50:21 PM 39.8808 -104.6964 181° South 132 152 5,300 -290 Descending Denver Center
Mon 09:52:00 PM 39.8617 -104.6732 190° South  Level Estimated
Mon 09:59:00 PM 39.8617 -104.6732 190° South  Level Estimated
Mon 10:00:00 PM 39.8617 -104.6732 190° South  Level Estimated

Login

Don't have an account? Register now (free) for customized features, flight alerts, and more!